Time;durP1;ratioP1;P1;durP2;ratioP2;P2;SDS_P1;SDS_P2;PMS_P1;PMS_P2;Temp;Humidity;BMP_temperature;BMP_pressure;BME280_temperature;BME280_humidity;BME280_pressure;Samples;Min_cycle;Max_cycle;Signal;HPM_P1;HPM_P2
2021/01/25 00:00:35;;;;;;;8.55;6.60;;;;;;;2.02;70.02;98576.38;5015114;28;20514;-76
2021/01/25 00:03:01;;;;;;;11.25;7.13;;;;;;;2.00;70.62;98575.88;5015800;28;20373;-76
2021/01/25 00:05:31;;;;;;;10.07;7.05;;;;;;;1.99;70.91;98579.72;5015851;28;20054;-76
2021/01/25 00:07:57;;;;;;;12.65;8.05;;;;;;;2.00;70.78;98581.34;5015855;28;20054;-76
2021/01/25 00:10:24;;;;;;;12.35;8.10;;;;;;;2.03;71.48;98572.50;5016046;28;20053;-76
2021/01/25 00:12:52;;;;;;;10.95;7.75;;;;;;;2.03;71.07;98569.75;5016227;28;20384;-76
2021/01/25 00:15:19;;;;;;;12.63;8.18;;;;;;;2.05;71.87;98568.66;5000506;28;20050;-76
2021/01/25 00:17:45;;;;;;;14.55;8.45;;;;;;;2.09;71.76;98575.97;4999804;28;20057;-76
2021/01/25 00:20:14;;;;;;;14.00;9.35;;;;;;;2.13;71.90;98576.19;5015797;28;20403;-76
2021/01/25 00:22:41;;;;;;;14.00;9.15;;;;;;;2.12;71.18;98577.28;4995983;28;20411;-76
2021/01/25 00:25:08;;;;;;;13.40;9.05;;;;;;;2.12;72.30;98567.13;5010701;28;20403;-76
2021/01/25 00:27:35;;;;;;;14.25;9.52;;;;;;;2.12;72.60;98569.03;5015634;28;20049;-76
2021/01/25 00:30:05;;;;;;;12.80;9.02;;;;;;;2.13;72.20;98568.75;5015905;28;20506;-76
2021/01/25 00:32:32;;;;;;;13.70;8.63;;;;;;;2.14;71.65;98569.53;5015299;28;20072;-76
2021/01/25 00:34:59;;;;;;;11.98;7.90;;;;;;;2.17;72.45;98564.25;5015484;28;20511;-76
2021/01/25 00:37:26;;;;;;;12.98;7.43;;;;;;;2.20;72.12;98563.63;5015577;28;20061;-76
2021/01/25 00:39:53;;;;;;;10.65;7.10;;;;;;;2.21;71.01;98559.78;5014638;28;20076;-76
2021/01/25 00:42:19;;;;;;;12.60;7.70;;;;;;;2.26;70.96;98563.56;5015255;28;20049;-76
2021/01/25 00:44:46;;;;;;;13.23;8.07;;;;;;;2.28;71.38;98564.88;5015437;28;20502;-76
2021/01/25 00:47:14;;;;;;;10.48;7.50;;;;;;;2.25;70.79;98554.50;5015647;28;20057;-76
2021/01/25 00:49:41;;;;;;;10.45;7.85;;;;;;;2.27;71.40;98549.53;5015121;28;20053;-76
2021/01/25 00:52:08;;;;;;;12.27;9.20;;;;;;;2.20;70.20;98560.09;5015382;28;20415;-76
2021/01/25 00:54:34;;;;;;;13.05;8.65;;;;;;;2.24;71.18;98550.91;5013430;28;20396;-76
2021/01/25 00:57:01;;;;;;;11.65;8.77;;;;;;;2.29;71.42;98551.94;5014826;28;20046;-76
2021/01/25 00:59:30;;;;;;;14.05;9.38;;;;;;;2.26;71.00;98550.63;5014970;28;20086;-76
2021/01/25 01:01:57;;;;;;;16.40;9.27;;;;;;;2.28;71.94;98548.38;5014903;28;20054;-76
2021/01/25 01:04:25;;;;;;;14.60;9.55;;;;;;;2.29;71.84;98550.03;5015117;28;20054;-76
2021/01/25 01:06:52;;;;;;;13.20;8.23;;;;;;;2.30;71.44;98548.09;5015097;28;20395;-77
2021/01/25 01:09:18;;;;;;;13.38;8.23;;;;;;;2.34;71.48;98549.09;4999732;28;20126;-76
2021/01/25 01:11:45;;;;;;;13.73;9.27;;;;;;;2.32;70.90;98554.09;4995172;28;20058;-76
2021/01/25 01:14:12;;;;;;;12.75;8.57;;;;;;;2.34;71.42;98558.16;4995022;28;20476;-76
2021/01/25 01:16:39;;;;;;;13.07;8.43;;;;;;;2.35;71.05;98548.78;4994847;28;20058;-76
2021/01/25 01:19:06;;;;;;;11.05;8.55;;;;;;;2.39;71.27;98544.31;4995401;28;20058;-76
2021/01/25 01:21:34;;;;;;;12.73;8.50;;;;;;;2.36;71.22;98553.16;4995191;28;20050;-77
2021/01/25 01:24:01;;;;;;;11.38;7.95;;;;;;;2.43;72.00;98550.00;5003626;28;20049;-77
2021/01/25 01:26:31;;;;;;;12.63;8.35;;;;;;;2.43;71.06;98545.28;5014302;28;20404;-77
2021/01/25 01:28:57;;;;;;;12.23;8.00;;;;;;;2.46;71.30;98556.78;5014506;28;20431;-76
2021/01/25 01:31:24;;;;;;;12.95;8.18;;;;;;;2.51;70.56;98548.47;5014678;28;20480;-77
2021/01/25 01:33:51;;;;;;;13.68;8.38;;;;;;;2.54;71.05;98548.66;5015072;28;20514;-77
2021/01/25 01:36:18;;;;;;;17.77;9.10;;;;;;;2.57;70.56;98550.78;5014284;28;20518;-77
2021/01/25 01:38:46;;;;;;;13.02;8.63;;;;;;;2.63;71.25;98551.50;5008146;28;20057;-77
2021/01/25 01:41:15;;;;;;;14.05;8.77;;;;;;;2.70;70.92;98551.06;5014025;28;20496;-77
2021/01/25 01:43:42;;;;;;;15.48;9.63;;;;;;;2.71;70.69;98549.91;5014425;28;20057;-77
2021/01/25 01:46:10;;;;;;;17.65;9.95;;;;;;;2.77;71.03;98548.69;5014088;28;20414;-77
2021/01/25 01:48:38;;;;;;;24.25;11.90;;;;;;;2.76;70.09;98545.13;5014256;28;20057;-77
2021/01/25 01:51:05;;;;;;;19.63;12.10;;;;;;;2.78;70.06;98550.31;5014258;28;20057;-77
2021/01/25 01:53:32;;;;;;;22.63;11.73;;;;;;;2.82;69.90;98546.63;5012468;28;20415;-77
2021/01/25 01:56:00;;;;;;;21.58;10.40;;;;;;;2.83;70.44;98551.03;5014304;28;20057;-77
2021/01/25 01:58:28;;;;;;;19.60;11.52;;;;;;;2.84;70.46;98543.59;5014474;28;20062;-76
2021/01/25 02:00:55;;;;;;;18.20;10.95;;;;;;;2.79;70.03;98547.28;5014198;28;20049;-76
2021/01/25 02:03:24;;;;;;;13.30;8.55;;;;;;;2.80;70.55;98554.38;5009634;28;20065;-76
2021/01/25 02:05:53;;;;;;;11.45;8.07;;;;;;;2.84;70.28;98549.09;5014137;28;20054;-76
2021/01/25 02:08:21;;;;;;;11.85;7.78;;;;;;;2.88;70.72;98554.75;5013823;28;20403;-77
2021/01/25 02:10:50;;;;;;;11.48;8.10;;;;;;;2.92;70.45;98550.25;5013826;28;20054;-76
2021/01/25 02:13:18;;;;;;;11.07;8.30;;;;;;;2.90;70.37;98547.84;5013863;28;20049;-76
2021/01/25 02:15:46;;;;;;;14.55;8.57;;;;;;;2.97;70.35;98548.22;5013840;28;20057;-76
2021/01/25 02:18:13;;;;;;;17.17;8.50;;;;;;;3.01;69.64;98554.72;4999252;28;20077;-76
2021/01/25 02:20:42;;;;;;;19.77;9.98;;;;;;;3.03;68.94;98551.66;4994122;28;20065;-77
2021/01/25 02:23:44;;;;;;;14.82;9.82;;;;;;;3.01;69.72;98551.97;4993712;28;20061;-77
2021/01/25 02:26:19;;;;;;;17.55;9.45;;;;;;;2.94;69.55;98553.50;4994069;28;20511;-76
2021/01/25 02:28:48;;;;;;;13.50;8.98;;;;;;;2.94;70.06;98554.34;5005723;28;20045;-76
2021/01/25 02:31:15;;;;;;;12.63;8.20;;;;;;;2.96;70.09;98551.25;4994024;28;20061;-77
2021/01/25 02:33:46;;;;;;;12.52;8.50;;;;;;;2.96;69.94;98562.25;4993516;28;20054;-76
2021/01/25 02:36:14;;;;;;;14.52;8.95;;;;;;;2.97;69.81;98563.91;4993914;28;20050;-76
2021/01/25 02:38:43;;;;;;;14.40;7.90;;;;;;;3.00;70.40;98563.28;4993930;28;20389;-77
2021/01/25 02:41:13;;;;;;;13.07;8.65;;;;;;;2.99;69.77;98561.66;4994115;28;20416;-76
2021/01/25 02:43:41;;;;;;;13.27;8.68;;;;;;;2.97;70.02;98561.97;4999060;28;20042;-76
2021/01/25 02:46:10;;;;;;;13.43;8.75;;;;;;;2.93;70.46;98562.91;5013026;28;20058;-76
2021/01/25 02:48:38;;;;;;;13.20;8.65;;;;;;;3.00;70.86;98561.34;5013335;28;20057;-76
2021/01/25 02:51:05;;;;;;;13.30;9.00;;;;;;;2.98;70.36;98560.00;5010747;28;20060;-76
2021/01/25 02:53:32;;;;;;;13.05;8.57;;;;;;;2.92;70.42;98561.25;5013047;28;20057;-76
2021/01/25 02:56:01;;;;;;;12.02;8.85;;;;;;;2.92;70.31;98567.59;5013161;28;20061;-76
2021/01/25 02:58:28;;;;;;;14.83;9.07;;;;;;;2.97;70.70;98572.16;5013643;28;20077;-77
2021/01/25 03:00:57;;;;;;;12.52;9.10;;;;;;;2.98;69.92;98563.59;5012910;28;20053;-77
2021/01/25 03:03:28;;;;;;;13.45;8.98;;;;;;;2.97;70.90;98569.41;5013691;28;20061;-77
2021/01/25 03:05:56;;;;;;;12.45;8.50;;;;;;;2.98;70.11;98569.09;5005706;28;20058;-76
2021/01/25 03:08:24;;;;;;;15.35;9.25;;;;;;;3.01;70.45;98573.16;5012772;28;20084;-76
2021/01/25 03:10:52;;;;;;;14.98;8.27;;;;;;;2.99;70.00;98578.97;5013425;28;20053;-76
2021/01/25 03:13:24;;;;;;;13.35;7.93;;;;;;;3.01;69.73;98582.22;5013226;28;20065;-76
2021/01/25 03:15:54;;;;;;;10.82;7.72;;;;;;;3.02;70.10;98574.78;5017982;28;20054;-77
2021/01/25 03:18:20;;;;;;;10.97;7.77;;;;;;;3.07;70.57;98577.41;5013116;28;20054;-77
2021/01/25 03:20:49;;;;;;;10.85;7.10;;;;;;;3.08;70.28;98575.47;5010765;28;20822;-77
2021/01/25 03:23:16;;;;;;;10.05;6.88;;;;;;;3.12;70.03;98577.28;5012468;28;20411;-76
2021/01/25 03:25:43;;;;;;;10.85;6.78;;;;;;;3.19;69.74;98574.94;5011230;28;20050;-77
2021/01/25 03:28:10;;;;;;;11.18;7.10;;;;;;;3.20;70.51;98572.97;5013477;28;20058;-77
2021/01/25 03:30:37;;;;;;;9.57;7.22;;;;;;;3.22;70.02;98584.50;5013095;28;20376;-76
2021/01/25 03:33:04;;;;;;;9.80;6.88;;;;;;;3.23;70.13;98592.44;5013044;28;20069;-76
2021/01/25 03:35:32;;;;;;;9.95;6.68;;;;;;;3.22;70.12;98587.25;5013155;28;20488;-77
2021/01/25 03:37:59;;;;;;;13.65;8.27;;;;;;;3.24;70.14;98590.50;5013051;28;20484;-77
2021/01/25 03:40:26;;;;;;;11.10;7.18;;;;;;;3.30;71.17;98593.91;5006558;28;20049;-77
2021/01/25 03:42:53;;;;;;;12.02;7.20;;;;;;;3.32;70.67;98594.41;5012805;28;20481;-77
2021/01/25 03:45:20;;;;;;;10.77;7.40;;;;;;;3.34;71.09;98598.50;5013562;28;20053;-76
2021/01/25 03:47:47;;;;;;;9.68;7.30;;;;;;;3.41;70.58;98592.56;5013866;28;20391;-77
2021/01/25 03:50:14;;;;;;;10.95;7.75;;;;;;;3.43;70.25;98604.06;5013080;28;20467;-77
2021/01/25 03:52:41;;;;;;;13.48;8.10;;;;;;;3.47;70.61;98596.81;5012723;28;20049;-77
2021/01/25 03:55:10;;;;;;;10.98;7.70;;;;;;;3.50;70.69;98598.91;4994444;28;20058;-77
2021/01/25 03:57:38;;;;;;;8.50;5.72;;;;;;;3.50;70.05;98601.66;4993364;28;20054;-76
2021/01/25 04:00:07;;;;;;;9.60;5.80;;;;;;;3.53;69.31;98603.81;4993239;28;20062;-77
2021/01/25 04:02:34;;;;;;;12.18;7.20;;;;;;;3.52;69.84;98606.88;4993312;28;20055;-77
2021/01/25 04:05:01;;;;;;;9.65;6.25;;;;;;;3.57;69.79;98599.31;4993871;28;20054;-77
2021/01/25 04:07:28;;;;;;;10.20;6.47;;;;;;;3.63;70.05;98609.06;4993876;28;20061;-76
2021/01/25 04:09:55;;;;;;;8.05;6.10;;;;;;;3.65;69.96;98608.72;5009738;28;20496;-77
2021/01/25 04:12:24;;;;;;;9.32;6.32;;;;;;;3.66;69.81;98604.84;5012923;28;20050;-77
2021/01/25 04:14:51;;;;;;;9.43;6.72;;;;;;;3.66;69.65;98610.38;5012791;28;20064;-77
2021/01/25 04:17:18;;;;;;;8.63;6.13;;;;;;;3.70;69.34;98610.56;5014248;28;20058;-77
2021/01/25 04:19:45;;;;;;;12.43;6.47;;;;;;;3.71;70.01;98610.22;5016788;28;20053;-77
2021/01/25 04:22:12;;;;;;;8.25;6.38;;;;;;;3.73;69.87;98604.41;5016496;28;20054;-77
2021/01/25 04:24:39;;;;;;;10.93;6.55;;;;;;;3.75;69.47;98604.91;5015777;28;20065;-77
2021/01/25 04:27:10;;;;;;;9.07;6.10;;;;;;;3.78;69.58;98609.78;5016451;28;20053;-77
2021/01/25 04:29:38;;;;;;;9.48;5.75;;;;;;;3.78;69.40;98609.78;5016579;28;20049;-77
2021/01/25 04:32:05;;;;;;;9.85;6.55;;;;;;;3.77;70.25;98608.16;5016273;28;20050;-77
2021/01/25 04:34:32;;;;;;;9.05;6.35;;;;;;;3.77;69.50;98613.66;5016301;28;20046;-77
2021/01/25 04:36:59;;;;;;;9.68;6.40;;;;;;;3.78;69.81;98615.28;5016231;28;20058;-77
2021/01/25 04:39:26;;;;;;;8.43;5.95;;;;;;;3.78;69.90;98607.84;5005042;28;20080;-77
2021/01/25 04:41:53;;;;;;;9.02;5.88;;;;;;;3.79;69.80;98608.66;4996717;28;20066;-77
2021/01/25 04:44:22;;;;;;;11.77;7.05;;;;;;;3.79;69.89;98619.66;4996600;28;20058;-77
2021/01/25 04:46:55;;;;;;;12.80;7.97;;;;;;;3.78;69.68;98609.78;4996114;28;20058;-77
2021/01/25 04:49:25;;;;;;;12.77;8.23;;;;;;;3.74;69.83;98619.78;4989733;28;20073;-77
2021/01/25 04:51:54;;;;;;;17.08;9.85;;;;;;;3.69;69.24;98622.69;4996037;28;20058;-77
2021/01/25 04:54:20;;;;;;;15.43;9.23;;;;;;;3.69;70.26;98620.75;5008553;28;20050;-77
2021/01/25 04:56:48;;;;;;;12.82;8.95;;;;;;;3.72;70.76;98619.31;5015607;28;20054;-77
2021/01/25 04:59:15;;;;;;;12.35;9.20;;;;;;;3.72;70.52;98622.88;5015809;28;20049;-77
2021/01/25 05:01:42;;;;;;;15.95;8.25;;;;;;;3.72;71.17;98614.63;5014959;28;20056;-77
2021/01/25 05:04:10;;;;;;;12.90;9.20;;;;;;;3.65;70.76;98614.22;5016141;28;20084;-77
2021/01/25 05:06:37;;;;;;;15.50;9.48;;;;;;;3.62;71.46;98615.69;5015674;28;20058;-77
2021/01/25 05:09:05;;;;;;;15.45;8.63;;;;;;;3.63;70.99;98624.75;5016784;28;20046;-77
2021/01/25 05:11:31;;;;;;;10.98;8.00;;;;;;;3.53;70.41;98627.75;5015920;28;20054;-78
2021/01/25 05:14:02;;;;;;;13.27;8.20;;;;;;;3.55;70.74;98629.09;5016054;28;20049;-78
2021/01/25 05:16:31;;;;;;;11.43;7.63;;;;;;;3.51;70.55;98635.50;5015009;28;20065;-78
2021/01/25 05:18:59;;;;;;;14.00;8.05;;;;;;;3.50;71.43;98625.63;5016099;28;20080;-78
2021/01/25 05:21:37;;;;;;;18.35;9.88;;;;;;;3.44;71.49;98633.19;5015553;28;20049;-77
2021/01/25 05:24:07;;;;;;;14.55;9.48;;;;;;;3.41;71.60;98633.84;5014529;28;20479;-77
2021/01/25 05:26:34;;;;;;;15.75;9.82;;;;;;;3.38;71.37;98628.94;5015209;28;20081;-77
2021/01/25 05:29:01;;;;;;;18.08;10.77;;;;;;;3.36;72.09;98637.53;5015291;28;20061;-77
2021/01/25 05:31:28;;;;;;;19.40;10.30;;;;;;;3.33;72.06;98640.88;5015071;28;20060;-77
2021/01/25 05:33:56;;;;;;;17.90;12.02;;;;;;;3.34;72.16;98641.69;5015137;28;20058;-77
2021/01/25 05:36:26;;;;;;;21.48;11.63;;;;;;;3.35;71.71;98643.34;5015200;28;20054;-78
2021/01/25 05:38:54;;;;;;;19.77;11.73;;;;;;;3.35;71.79;98648.84;5015055;28;20415;-77
2021/01/25 05:41:22;;;;;;;19.25;11.38;;;;;;;3.27;72.32;98655.09;5015295;28;20475;-77
2021/01/25 05:43:50;;;;;;;16.00;10.85;;;;;;;3.24;72.07;98653.78;5014933;28;20050;-77
2021/01/25 05:46:19;;;;;;;17.55;11.15;;;;;;;3.23;71.54;98661.22;5006842;28;20062;-77
2021/01/25 05:48:57;;;;;;;17.70;10.40;;;;;;;3.21;71.34;98666.22;5015032;28;20076;-77
2021/01/25 05:51:24;;;;;;;16.42;10.75;;;;;;;3.15;70.99;98664.72;5014047;28;20064;-77
2021/01/25 05:53:51;;;;;;;17.55;10.82;;;;;;;3.16;71.52;98665.50;5013415;28;20050;-77
2021/01/25 05:56:18;;;;;;;13.90;10.18;;;;;;;3.18;71.13;98664.06;5013953;28;20054;-77
2021/01/25 05:58:48;;;;;;;14.48;10.30;;;;;;;3.21;70.92;98679.13;5013874;28;20064;-77
2021/01/25 06:01:21;;;;;;;15.77;10.45;;;;;;;3.18;71.50;98677.03;5013867;28;20058;-77
2021/01/25 06:03:48;;;;;;;17.88;10.52;;;;;;;3.19;71.58;98670.38;5015713;28;20046;-77
2021/01/25 06:06:22;;;;;;;18.38;11.98;;;;;;;3.17;70.90;98673.47;5013834;28;20054;-77
2021/01/25 06:09:02;;;;;;;16.10;10.80;;;;;;;3.17;71.34;98681.72;5002607;28;20054;-77
2021/01/25 06:11:32;;;;;;;15.88;10.95;;;;;;;3.19;71.43;98684.13;4995217;28;20058;-76
2021/01/25 06:14:03;;;;;;;20.52;12.63;;;;;;;3.21;71.58;98684.63;5008086;28;20053;-77
2021/01/25 06:16:34;;;;;;;29.73;15.82;;;;;;;3.22;71.09;98687.09;5013344;28;20065;-76
2021/01/25 06:19:03;;;;;;;29.27;14.23;;;;;;;3.27;71.45;98688.09;5012623;28;20468;-76
2021/01/25 06:21:33;;;;;;;22.63;13.40;;;;;;;3.27;71.17;98688.91;5013674;28;20050;-76
2021/01/25 06:24:02;;;;;;;22.35;12.85;;;;;;;3.29;70.81;98697.66;5012052;28;20049;-76
2021/01/25 06:26:32;;;;;;;19.58;12.25;;;;;;;3.28;70.59;98689.75;5013850;28;20050;-76
2021/01/25 06:29:01;;;;;;;;;;;;;;;3.31;71.64;98697.38;5014532;28;20054;-77
2021/01/25 06:31:28;;;;;;;22.95;11.93;;;;;;;3.27;71.36;98699.09;5013696;28;19944;-76
2021/01/25 06:34:01;;;;;;;21.92;12.63;;;;;;;3.13;70.70;98696.38;5013847;28;20050;-76
2021/01/25 06:36:28;;;;;;;16.55;10.07;;;;;;;3.13;71.29;98701.88;5010605;28;20061;-76
2021/01/25 06:38:55;;;;;;;16.23;10.15;;;;;;;3.11;71.65;98704.13;5012339;28;20057;-76
2021/01/25 06:41:22;;;;;;;15.43;10.10;;;;;;;3.11;71.79;98699.44;5013746;28;20050;-77
2021/01/25 06:43:50;;;;;;;14.07;9.18;;;;;;;3.08;71.70;98713.00;5013364;28;20399;-76
2021/01/25 06:46:20;;;;;;;13.98;10.05;;;;;;;3.06;71.32;98705.06;5013446;28;20474;-76
2021/01/25 06:48:51;;;;;;;15.00;9.85;;;;;;;3.05;71.48;98711.69;5012982;28;20510;-76
2021/01/25 06:51:19;;;;;;;13.57;9.38;;;;;;;3.08;71.10;98713.81;5012248;28;20045;-76
2021/01/25 06:53:49;;;;;;;16.40;9.02;;;;;;;3.08;70.96;98713.00;5012640;28;20165;-76
2021/01/25 06:56:17;;;;;;;14.77;9.02;;;;;;;3.04;70.32;98727.38;5010558;28;20054;-77
2021/01/25 06:58:46;;;;;;;13.18;8.75;;;;;;;2.95;70.63;98736.66;5006173;28;20052;-78
2021/01/25 07:01:19;;;;;;;14.00;9.45;;;;;;;2.90;70.35;98739.50;5011831;28;20377;-78
2021/01/25 07:03:50;;;;;;;16.38;10.48;;;;;;;2.84;71.16;98742.34;4995724;28;20488;-78
2021/01/25 07:06:17;;;;;;;16.77;9.80;;;;;;;2.79;71.14;98755.38;4998283;28;20058;-78
2021/01/25 07:08:55;;;;;;;17.42;11.07;;;;;;;2.76;71.59;98756.81;5011083;28;20427;-76
2021/01/25 07:11:26;;;;;;;18.17;11.52;;;;;;;2.71;71.17;98765.16;5013626;28;20407;-81
2021/01/25 07:13:54;;;;;;;21.52;11.70;;;;;;;2.70;71.90;98763.53;5011627;28;20050;-80
2021/01/25 07:16:23;;;;;;;15.43;11.07;;;;;;;2.68;71.43;98771.25;5013828;28;20054;-80
2021/01/25 07:18:52;;;;;;;15.63;10.07;;;;;;;2.74;72.39;98777.50;5017742;28;20061;-78
2021/01/25 07:21:20;;;;;;;14.95;10.88;;;;;;;2.73;72.11;98786.84;4998499;28;20062;-77
2021/01/25 07:23:49;;;;;;;17.88;10.30;;;;;;;2.73;71.84;98784.09;4996235;28;20050;-79
2021/01/25 07:26:17;;;;;;;14.50;10.10;;;;;;;2.71;71.53;98794.56;4997201;28;20058;-78
2021/01/25 07:28:46;;;;;;;15.63;11.18;;;;;;;2.74;71.28;98786.53;4996335;28;20042;-82
2021/01/25 07:31:14;;;;;;;14.63;10.23;;;;;;;2.78;71.52;98797.75;4995095;28;20050;-78
2021/01/25 07:33:42;;;;;;;15.50;10.38;;;;;;;2.79;70.73;98794.72;4994947;28;20069;-78
2021/01/25 07:36:09;;;;;;;12.93;9.43;;;;;;;2.78;71.22;98801.31;4994236;28;20050;-78
2021/01/25 07:38:36;;;;;;;16.50;11.35;;;;;;;2.71;70.84;98803.66;4994092;28;20058;-78
2021/01/25 07:41:04;;;;;;;16.33;10.70;;;;;;;2.72;70.64;98798.97;4994335;28;20412;-78
2021/01/25 07:43:32;;;;;;;16.45;10.90;;;;;;;2.68;70.98;98801.50;4994296;28;20369;-78
2021/01/25 07:46:08;;;;;;;15.82;10.40;;;;;;;2.70;71.74;98810.25;4995076;28;20046;-85
2021/01/25 07:48:35;;;;;;;19.20;11.07;;;;;;;2.63;70.86;98815.34;4993277;28;20051;-80
2021/01/25 07:51:03;;;;;;;14.63;9.90;;;;;;;2.46;71.86;98818.69;4998145;28;20138;-79
2021/01/25 07:53:36;;;;;;;15.10;9.82;;;;;;;2.63;72.06;98831.84;4985507;28;20077;-77
2021/01/25 07:56:14;;;;;;;16.08;9.85;;;;;;;2.77;71.64;98829.09;4977098;28;20050;-77
2021/01/25 07:58:41;;;;;;;15.73;9.77;;;;;;;2.83;71.54;98833.38;4992775;28;20058;-76
2021/01/25 08:01:18;;;;;;;14.95;9.75;;;;;;;2.92;71.20;98839.00;5000469;28;20054;-77
2021/01/25 08:03:49;;;;;;;13.80;9.60;;;;;;;2.97;71.17;98841.66;5002938;28;20403;-77
2021/01/25 08:06:18;;;;;;;14.52;10.10;;;;;;;3.08;70.56;98839.53;4994965;28;20054;-77
2021/01/25 08:08:48;;;;;;;17.27;10.00;;;;;;;3.18;70.09;98850.34;4995102;28;20468;-77
2021/01/25 08:11:16;;;;;;;15.07;9.95;;;;;;;3.30;70.07;98855.31;4995615;28;20070;-78
2021/01/25 08:13:55;;;;;;;14.82;10.57;;;;;;;3.43;69.52;98851.75;5003152;28;20384;-78
2021/01/25 08:16:25;;;;;;;14.65;10.32;;;;;;;3.53;69.29;98859.81;4988934;28;20061;-77
2021/01/25 08:18:59;;;;;;;16.63;12.05;;;;;;;3.70;68.71;98859.16;4984522;28;20057;-78
2021/01/25 08:21:30;;;;;;;14.95;10.43;;;;;;;3.84;68.26;98868.22;4985660;28;20047;-78
2021/01/25 08:24:01;;;;;;;13.70;9.32;;;;;;;3.96;68.16;98873.19;4993747;28;20054;-78
2021/01/25 08:26:29;;;;;;;15.30;9.80;;;;;;;4.02;67.00;98880.22;5013432;28;20521;-77
2021/01/25 08:29:02;;;;;;;12.70;9.75;;;;;;;4.04;66.63;98882.66;5015546;28;20403;-77
2021/01/25 08:31:32;;;;;;;18.33;11.07;;;;;;;4.15;66.56;98883.25;5005564;28;20043;-77
2021/01/25 08:34:01;;;;;;;34.08;18.88;;;;;;;4.16;66.76;98888.44;4975719;28;20055;-77
2021/01/25 08:36:34;;;;;;;51.45;26.75;;;;;;;4.23;65.77;98896.28;4979421;28;20492;-78
2021/01/25 08:39:16;;;;;;;42.28;22.38;;;;;;;4.26;65.86;98895.63;4992879;28;20061;-80
2021/01/25 08:41:49;;;;;;;36.30;21.02;;;;;;;4.27;65.91;98906.38;4994600;28;20054;-77
2021/01/25 08:44:22;;;;;;;29.30;16.90;;;;;;;4.29;65.94;98906.06;5011049;28;20057;-77
2021/01/25 08:46:50;;;;;;;20.42;13.60;;;;;;;4.28;65.96;98898.91;5008601;28;20060;-78
2021/01/25 08:49:21;;;;;;;18.45;11.88;;;;;;;4.35;65.38;98907.56;5009216;28;20057;-77
2021/01/25 08:51:57;;;;;;;16.25;12.23;;;;;;;4.40;65.86;98906.63;4995856;28;20068;-77
2021/01/25 08:54:26;;;;;;;16.48;11.65;;;;;;;4.43;65.74;98911.50;4998073;28;20054;-78
2021/01/25 08:56:53;;;;;;;16.70;11.18;;;;;;;4.45;65.91;98920.28;5002001;28;20065;-80
2021/01/25 08:59:33;;;;;;;14.13;10.50;;;;;;;4.45;65.74;98921.13;5012458;28;20514;-80
2021/01/25 09:02:10;;;;;;;13.43;10.00;;;;;;;4.47;65.51;98918.88;4997746;28;20534;-77
2021/01/25 09:04:37;;;;;;;14.10;9.80;;;;;;;4.50;65.28;98925.69;4990589;28;20051;-77
2021/01/25 09:07:04;;;;;;;12.98;9.85;;;;;;;4.52;65.43;98922.63;4980546;28;20050;-77
2021/01/25 09:09:33;;;;;;;13.90;10.18;;;;;;;4.54;65.73;98934.16;5000869;28;20456;-78
2021/01/25 09:12:02;;;;;;;15.55;11.40;;;;;;;4.57;65.37;98933.53;4998031;28;20062;-77
2021/01/25 09:14:28;;;;;;;14.43;10.52;;;;;;;4.59;65.04;98934.03;5007571;28;20053;-79
2021/01/25 09:16:56;;;;;;;18.50;11.10;;;;;;;4.63;65.38;98940.53;5002800;28;20065;-77
2021/01/25 09:19:23;;;;;;;14.82;10.80;;;;;;;4.71;65.21;98945.31;5011914;28;20058;-78
2021/01/25 09:21:50;;;;;;;13.70;10.68;;;;;;;4.78;65.44;98951.19;5003870;28;20059;-79
2021/01/25 09:24:17;;;;;;;19.63;11.85;;;;;;;4.94;64.39;98954.41;5011749;28;20060;-78
2021/01/25 09:26:44;;;;;;;14.70;10.48;;;;;;;5.18;63.84;98954.06;5003452;28;20063;-77
2021/01/25 09:29:11;;;;;;;13.70;9.48;;;;;;;5.52;62.61;98958.13;4993935;28;20495;-77
2021/01/25 09:31:38;;;;;;;19.90;14.13;;;;;;;5.75;61.90;98955.28;4994837;28;20100;-78
2021/01/25 09:34:06;;;;;;;12.00;9.32;;;;;;;5.99;60.48;98954.91;5010632;28;20046;-78
2021/01/25 09:36:33;;;;;;;18.85;11.70;;;;;;;6.25;60.29;98957.72;4978611;28;20047;-78
2021/01/25 09:39:00;;;;;;;16.17;10.95;;;;;;;6.57;58.89;98967.50;5004024;28;20050;-78
2021/01/25 09:41:27;;;;;;;16.27;10.70;;;;;;;7.02;57.36;98969.13;4995429;28;20050;-78
2021/01/25 09:43:54;;;;;;;14.18;8.95;;;;;;;7.34;56.29;98967.75;5011601;28;20059;-78
2021/01/25 09:46:21;;;;;;;13.75;9.35;;;;;;;7.64;55.85;98974.19;4997448;28;20058;-78
2021/01/25 09:48:48;;;;;;;14.45;10.02;;;;;;;8.14;54.18;98975.41;4995442;28;20050;-78
2021/01/25 09:51:18;;;;;;;17.60;11.50;;;;;;;9.00;52.20;98973.19;5001912;28;20050;-78
2021/01/25 09:53:45;;;;;;;15.80;9.88;;;;;;;10.19;48.23;98977.22;4996145;28;20050;-78
2021/01/25 09:56:12;;;;;;;12.40;10.02;;;;;;;13.00;41.65;98968.34;4996247;28;20419;-78
2021/01/25 09:58:39;;;;;;;11.80;8.90;;;;;;;15.35;36.41;98971.75;5013443;28;20064;-78
2021/01/25 10:01:06;;;;;;;10.05;7.95;;;;;;;17.20;33.48;98975.59;5001201;28;20062;-78
2021/01/25 10:03:33;;;;;;;11.45;7.93;;;;;;;18.86;30.34;98983.00;4998705;28;20057;-78
2021/01/25 10:06:00;;;;;;;9.15;7.40;;;;;;;20.75;26.49;98979.44;4991748;28;20046;-78
2021/01/25 10:08:28;;;;;;;7.93;6.35;;;;;;;21.45;25.36;98979.03;5001879;28;20062;-78
2021/01/25 10:10:57;;;;;;;7.28;5.88;;;;;;;21.79;24.35;98978.13;4996437;28;20085;-79
2021/01/25 10:13:24;;;;;;;7.57;5.43;;;;;;;20.17;26.55;98990.41;4992669;28;20062;-79
2021/01/25 10:15:51;;;;;;;6.97;6.28;;;;;;;20.51;25.80;98984.88;4986998;28;20050;-79
2021/01/25 10:18:18;;;;;;;6.18;5.20;;;;;;;19.57;27.00;98987.56;4989279;28;20454;-77
2021/01/25 10:20:44;;;;;;;7.20;5.45;;;;;;;18.11;29.06;98997.97;4985861;28;20161;-76
2021/01/25 10:23:11;;;;;;;6.90;5.60;;;;;;;16.88;30.81;99003.56;4984665;28;20404;-77
2021/01/25 10:25:39;;;;;;;8.63;5.68;;;;;;;16.05;31.87;99007.75;4989297;28;20054;-77
2021/01/25 10:28:06;;;;;;;6.63;5.60;;;;;;;15.30;33.70;99014.16;4989310;28;20046;-77
2021/01/25 10:30:32;;;;;;;7.95;5.78;;;;;;;14.68;34.55;99016.50;4988318;28;20065;-77
2021/01/25 10:33:00;;;;;;;8.43;5.80;;;;;;;14.16;35.95;99030.88;4988637;28;20077;-77
2021/01/25 10:35:27;;;;;;;7.70;6.25;;;;;;;13.61;36.44;99027.50;4986826;28;20057;-77
2021/01/25 10:37:54;;;;;;;8.05;6.55;;;;;;;13.36;37.65;99027.81;4983057;28;20069;-78
2021/01/25 10:40:22;;;;;;;7.97;6.55;;;;;;;13.10;37.98;99030.41;4984832;28;20050;-76
2021/01/25 10:42:49;;;;;;;8.02;5.70;;;;;;;13.13;38.16;99029.69;4986022;28;20050;-77
2021/01/25 10:45:17;;;;;;;8.88;6.45;;;;;;;13.37;37.18;99037.81;4986680;28;20057;-77
2021/01/25 10:47:44;;;;;;;7.90;6.30;;;;;;;13.79;37.98;99048.22;4980285;28;20065;-76
2021/01/25 10:50:12;;;;;;;9.32;6.32;;;;;;;13.97;37.01;99050.56;4989650;28;20093;-78
2021/01/25 10:52:38;;;;;;;8.00;6.32;;;;;;;13.90;36.73;99044.81;4992121;28;20058;-78
2021/01/25 10:55:07;;;;;;;8.32;6.20;;;;;;;13.79;36.75;99062.19;4981874;28;20057;-77
2021/01/25 10:57:34;;;;;;;10.18;6.70;;;;;;;13.48;37.43;99062.38;4983729;28;20069;-77
2021/01/25 11:00:04;;;;;;;7.15;6.00;;;;;;;13.27;37.45;99060.75;4981425;28;20612;-76
2021/01/25 11:02:31;;;;;;;8.23;6.80;;;;;;;13.00;38.36;99065.38;4988310;28;20062;-78
2021/01/25 11:04:58;;;;;;;7.47;6.50;;;;;;;12.95;38.81;99063.63;4990972;28;20176;-79
2021/01/25 11:07:25;;;;;;;8.02;6.80;;;;;;;12.73;39.17;99062.34;4984165;28;20053;-79
2021/01/25 11:09:52;;;;;;;7.70;6.03;;;;;;;12.55;39.14;99073.09;4979441;28;20062;-77
2021/01/25 11:12:19;;;;;;;9.60;6.82;;;;;;;12.66;39.46;99076.16;4980819;28;20068;-77
2021/01/25 11:14:45;;;;;;;9.60;6.75;;;;;;;12.62;39.88;99074.44;4985499;28;20092;-79
2021/01/25 11:17:13;;;;;;;8.88;6.47;;;;;;;12.48;39.86;99078.53;4983867;28;20061;-77
2021/01/25 11:19:40;;;;;;;7.50;6.22;;;;;;;12.68;39.54;99085.00;4988459;28;21306;-77
2021/01/25 11:22:07;;;;;;;8.77;6.63;;;;;;;12.61;38.80;99081.22;4979995;28;20046;-77
2021/01/25 11:24:34;;;;;;;9.77;7.72;;;;;;;12.79;38.76;99083.25;4986090;28;20446;-77
2021/01/25 11:27:04;;;;;;;10.80;7.40;;;;;;;13.12;38.62;99086.78;4981916;28;20070;-78
2021/01/25 11:29:31;;;;;;;8.27;6.38;;;;;;;13.65;37.58;99084.34;4990719;28;20057;-79
2021/01/25 11:32:00;;;;;;;7.90;5.28;;;;;;;13.90;35.83;99096.03;4994727;28;20050;-79
2021/01/25 11:34:29;;;;;;;7.82;5.97;;;;;;;13.95;36.49;99092.09;4996598;28;20050;-79
2021/01/25 11:36:56;;;;;;;8.82;6.28;;;;;;;14.40;35.48;99096.94;4994963;28;20050;-79